sensor_id;sensor_type;location;lat;lon;timestamp;P1;durP1;ratioP1;P2;durP2;ratioP2
67041;SDS011;53949;47.790;18.750;2023-04-12T00:02:28;2.75;;;1.70;;
67041;SDS011;53949;47.790;18.750;2023-04-12T00:05:32;3.70;;;2.10;;
67041;SDS011;53949;47.790;18.750;2023-04-12T00:08:35;2.62;;;2.37;;
67041;SDS011;53949;47.790;18.750;2023-04-12T00:11:38;4.10;;;2.10;;
67041;SDS011;53949;47.790;18.750;2023-04-12T00:14:42;4.53;;;2.55;;
67041;SDS011;53949;47.790;18.750;2023-04-12T00:17:46;2.35;;;2.08;;
67041;SDS011;53949;47.790;18.750;2023-04-12T00:20:52;2.53;;;2.30;;
67041;SDS011;53949;47.790;18.750;2023-04-12T00:23:57;2.30;;;2.10;;
67041;SDS011;53949;47.790;18.750;2023-04-12T00:27:00;3.12;;;2.37;;
67041;SDS011;53949;47.790;18.750;2023-04-12T00:30:04;2.92;;;2.40;;
67041;SDS011;53949;47.790;18.750;2023-04-12T00:33:09;3.97;;;2.45;;
67041;SDS011;53949;47.790;18.750;2023-04-12T00:36:12;3.50;;;2.33;;
67041;SDS011;53949;47.790;18.750;2023-04-12T00:39:16;2.65;;;2.45;;
67041;SDS011;53949;47.790;18.750;2023-04-12T00:42:19;5.05;;;2.70;;
67041;SDS011;53949;47.790;18.750;2023-04-12T00:45:23;3.15;;;2.72;;
67041;SDS011;53949;47.790;18.750;2023-04-12T00:48:27;3.60;;;2.40;;
67041;SDS011;53949;47.790;18.750;2023-04-12T00:51:31;3.87;;;2.93;;
67041;SDS011;53949;47.790;18.750;2023-04-12T00:54:36;3.20;;;2.62;;
67041;SDS011;53949;47.790;18.750;2023-04-12T00:57:39;4.35;;;2.90;;
67041;SDS011;53949;47.790;18.750;2023-04-12T01:00:43;5.45;;;2.78;;
67041;SDS011;53949;47.790;18.750;2023-04-12T01:03:52;3.33;;;2.62;;
67041;SDS011;53949;47.790;18.750;2023-04-12T01:10:45;4.43;;;3.05;;
67041;SDS011;53949;47.790;18.750;2023-04-12T01:14:10;3.50;;;2.67;;
67041;SDS011;53949;47.790;18.750;2023-04-12T01:17:19;5.87;;;3.03;;
67041;SDS011;53949;47.790;18.750;2023-04-12T01:20:29;3.50;;;3.17;;
67041;SDS011;53949;47.790;18.750;2023-04-12T01:26:54;6.37;;;2.95;;
67041;SDS011;53949;47.790;18.750;2023-04-12T01:30:02;3.90;;;2.85;;
67041;SDS011;53949;47.790;18.750;2023-04-12T01:33:09;6.30;;;3.20;;
67041;SDS011;53949;47.790;18.750;2023-04-12T01:36:14;7.07;;;3.83;;
67041;SDS011;53949;47.790;18.750;2023-04-12T01:39:20;5.43;;;3.47;;
67041;SDS011;53949;47.790;18.750;2023-04-12T01:42:23;5.37;;;3.20;;
67041;SDS011;53949;47.790;18.750;2023-04-12T01:45:29;3.28;;;2.87;;
67041;SDS011;53949;47.790;18.750;2023-04-12T01:48:32;4.75;;;3.35;;
67041;SDS011;53949;47.790;18.750;2023-04-12T01:54:56;5.75;;;3.28;;
67041;SDS011;53949;47.790;18.750;2023-04-12T01:58:01;7.55;;;3.75;;
67041;SDS011;53949;47.790;18.750;2023-04-12T02:01:05;3.65;;;3.08;;
67041;SDS011;53949;47.790;18.750;2023-04-12T02:04:12;2.92;;;1.92;;
67041;SDS011;53949;47.790;18.750;2023-04-12T02:07:16;2.80;;;2.60;;
67041;SDS011;53949;47.790;18.750;2023-04-12T02:10:27;5.80;;;3.95;;
67041;SDS011;53949;47.790;18.750;2023-04-12T02:13:31;4.62;;;3.45;;
67041;SDS011;53949;47.790;18.750;2023-04-12T02:16:35;6.03;;;3.92;;
67041;SDS011;53949;47.790;18.750;2023-04-12T02:22:44;5.97;;;3.28;;
67041;SDS011;53949;47.790;18.750;2023-04-12T02:25:47;6.82;;;3.62;;
67041;SDS011;53949;47.790;18.750;2023-04-12T02:28:50;6.00;;;3.22;;
67041;SDS011;53949;47.790;18.750;2023-04-12T02:31:54;6.25;;;3.28;;
67041;SDS011;53949;47.790;18.750;2023-04-12T02:34:58;5.87;;;3.58;;
67041;SDS011;53949;47.790;18.750;2023-04-12T02:38:02;6.45;;;3.67;;
67041;SDS011;53949;47.790;18.750;2023-04-12T02:41:15;4.12;;;3.30;;
67041;SDS011;53949;47.790;18.750;2023-04-12T02:44:22;3.28;;;2.62;;
67041;SDS011;53949;47.790;18.750;2023-04-12T02:47:25;5.10;;;3.33;;
67041;SDS011;53949;47.790;18.750;2023-04-12T02:50:32;5.57;;;3.62;;
67041;SDS011;53949;47.790;18.750;2023-04-12T02:53:35;5.50;;;3.45;;
67041;SDS011;53949;47.790;18.750;2023-04-12T02:56:40;5.70;;;3.75;;
67041;SDS011;53949;47.790;18.750;2023-04-12T02:59:45;5.00;;;2.97;;
67041;SDS011;53949;47.790;18.750;2023-04-12T03:02:49;5.35;;;3.75;;
67041;SDS011;53949;47.790;18.750;2023-04-12T03:05:53;7.65;;;3.60;;
67041;SDS011;53949;47.790;18.750;2023-04-12T03:08:57;5.10;;;3.60;;
67041;SDS011;53949;47.790;18.750;2023-04-12T03:12:00;6.47;;;3.75;;
67041;SDS011;53949;47.790;18.750;2023-04-12T03:15:06;5.35;;;3.60;;
67041;SDS011;53949;47.790;18.750;2023-04-12T03:18:10;4.03;;;3.28;;
67041;SDS011;53949;47.790;18.750;2023-04-12T03:21:16;5.85;;;3.87;;
67041;SDS011;53949;47.790;18.750;2023-04-12T03:24:19;4.10;;;3.40;;
67041;SDS011;53949;47.790;18.750;2023-04-12T03:27:24;6.15;;;3.95;;
67041;SDS011;53949;47.790;18.750;2023-04-12T03:30:27;6.45;;;3.58;;
67041;SDS011;53949;47.790;18.750;2023-04-12T03:33:31;6.15;;;3.37;;
67041;SDS011;53949;47.790;18.750;2023-04-12T03:36:35;8.13;;;4.15;;
67041;SDS011;53949;47.790;18.750;2023-04-12T03:39:40;6.57;;;3.40;;
67041;SDS011;53949;47.790;18.750;2023-04-12T03:42:50;6.18;;;3.30;;
67041;SDS011;53949;47.790;18.750;2023-04-12T03:45:54;4.75;;;3.53;;
67041;SDS011;53949;47.790;18.750;2023-04-12T03:48:58;8.90;;;4.30;;
67041;SDS011;53949;47.790;18.750;2023-04-12T03:52:04;4.30;;;3.42;;
67041;SDS011;53949;47.790;18.750;2023-04-12T03:55:09;6.55;;;3.55;;
67041;SDS011;53949;47.790;18.750;2023-04-12T03:58:14;3.85;;;3.45;;
67041;SDS011;53949;47.790;18.750;2023-04-12T04:01:18;4.20;;;3.62;;
67041;SDS011;53949;47.790;18.750;2023-04-12T04:04:23;5.80;;;3.97;;
67041;SDS011;53949;47.790;18.750;2023-04-12T04:07:27;5.62;;;3.80;;
67041;SDS011;53949;47.790;18.750;2023-04-12T04:10:32;7.23;;;4.10;;
67041;SDS011;53949;47.790;18.750;2023-04-12T04:13:35;4.57;;;3.25;;
67041;SDS011;53949;47.790;18.750;2023-04-12T04:16:39;4.35;;;3.35;;
67041;SDS011;53949;47.790;18.750;2023-04-12T04:19:42;6.45;;;3.83;;
67041;SDS011;53949;47.790;18.750;2023-04-12T04:22:46;5.68;;;3.70;;
67041;SDS011;53949;47.790;18.750;2023-04-12T04:25:49;5.75;;;3.90;;
67041;SDS011;53949;47.790;18.750;2023-04-12T04:28:56;5.90;;;3.67;;
67041;SDS011;53949;47.790;18.750;2023-04-12T04:32:03;4.87;;;3.65;;
67041;SDS011;53949;47.790;18.750;2023-04-12T04:35:07;5.35;;;3.47;;
67041;SDS011;53949;47.790;18.750;2023-04-12T04:38:11;6.62;;;4.20;;
67041;SDS011;53949;47.790;18.750;2023-04-12T04:41:15;4.18;;;3.65;;
67041;SDS011;53949;47.790;18.750;2023-04-12T04:44:27;7.10;;;4.57;;
67041;SDS011;53949;47.790;18.750;2023-04-12T04:47:31;7.35;;;4.30;;
67041;SDS011;53949;47.790;18.750;2023-04-12T04:50:34;7.28;;;4.40;;
67041;SDS011;53949;47.790;18.750;2023-04-12T04:53:38;8.10;;;4.60;;
67041;SDS011;53949;47.790;18.750;2023-04-12T04:56:44;5.87;;;4.15;;
67041;SDS011;53949;47.790;18.750;2023-04-12T04:59:48;5.82;;;4.47;;
67041;SDS011;53949;47.790;18.750;2023-04-12T05:02:52;8.52;;;4.47;;
67041;SDS011;53949;47.790;18.750;2023-04-12T05:05:56;9.07;;;5.05;;
67041;SDS011;53949;47.790;18.750;2023-04-12T05:09:04;7.72;;;4.80;;
67041;SDS011;53949;47.790;18.750;2023-04-12T05:12:07;14.07;;;6.05;;
67041;SDS011;53949;47.790;18.750;2023-04-12T05:15:10;9.25;;;5.40;;
67041;SDS011;53949;47.790;18.750;2023-04-12T05:18:14;8.93;;;6.00;;
67041;SDS011;53949;47.790;18.750;2023-04-12T05:21:17;7.87;;;5.43;;
67041;SDS011;53949;47.790;18.750;2023-04-12T05:24:21;14.63;;;8.23;;
67041;SDS011;53949;47.790;18.750;2023-04-12T05:27:24;28.50;;;12.05;;
67041;SDS011;53949;47.790;18.750;2023-04-12T05:30:29;16.35;;;6.85;;
67041;SDS011;53949;47.790;18.750;2023-04-12T05:33:34;18.08;;;8.75;;
67041;SDS011;53949;47.790;18.750;2023-04-12T05:36:39;18.40;;;9.40;;
67041;SDS011;53949;47.790;18.750;2023-04-12T05:39:43;7.87;;;5.20;;
67041;SDS011;53949;47.790;18.750;2023-04-12T05:42:46;8.13;;;4.50;;
67041;SDS011;53949;47.790;18.750;2023-04-12T05:45:50;4.78;;;3.62;;
67041;SDS011;53949;47.790;18.750;2023-04-12T05:48:54;6.35;;;4.03;;
67041;SDS011;53949;47.790;18.750;2023-04-12T05:51:58;12.07;;;4.20;;
67041;SDS011;53949;47.790;18.750;2023-04-12T05:55:01;4.97;;;3.92;;
67041;SDS011;53949;47.790;18.750;2023-04-12T05:58:04;4.93;;;3.22;;
67041;SDS011;53949;47.790;18.750;2023-04-12T06:01:08;5.22;;;3.95;;
67041;SDS011;53949;47.790;18.750;2023-04-12T06:04:13;5.68;;;3.47;;
67041;SDS011;53949;47.790;18.750;2023-04-12T06:07:16;5.30;;;3.60;;
67041;SDS011;53949;47.790;18.750;2023-04-12T06:10:22;4.65;;;3.53;;
67041;SDS011;53949;47.790;18.750;2023-04-12T06:13:27;7.53;;;4.30;;
67041;SDS011;53949;47.790;18.750;2023-04-12T06:16:30;6.72;;;4.50;;
67041;SDS011;53949;47.790;18.750;2023-04-12T06:19:33;8.55;;;4.10;;
67041;SDS011;53949;47.790;18.750;2023-04-12T06:22:37;4.90;;;3.28;;
67041;SDS011;53949;47.790;18.750;2023-04-12T06:25:40;5.00;;;3.37;;
67041;SDS011;53949;47.790;18.750;2023-04-12T06:28:44;6.30;;;4.43;;
67041;SDS011;53949;47.790;18.750;2023-04-12T06:31:47;4.05;;;3.15;;
67041;SDS011;53949;47.790;18.750;2023-04-12T06:34:51;7.43;;;4.30;;
67041;SDS011;53949;47.790;18.750;2023-04-12T06:37:54;6.28;;;4.00;;
67041;SDS011;53949;47.790;18.750;2023-04-12T06:40:57;5.47;;;4.03;;
67041;SDS011;53949;47.790;18.750;2023-04-12T06:44:00;7.53;;;3.83;;
67041;SDS011;53949;47.790;18.750;2023-04-12T06:47:04;5.12;;;3.70;;
67041;SDS011;53949;47.790;18.750;2023-04-12T06:50:07;5.68;;;3.67;;
67041;SDS011;53949;47.790;18.750;2023-04-12T06:53:11;5.75;;;4.10;;
67041;SDS011;53949;47.790;18.750;2023-04-12T06:56:15;5.75;;;3.92;;
67041;SDS011;53949;47.790;18.750;2023-04-12T07:02:23;4.72;;;3.78;;
67041;SDS011;53949;47.790;18.750;2023-04-12T07:05:26;5.12;;;4.20;;
67041;SDS011;53949;47.790;18.750;2023-04-12T07:08:31;5.37;;;4.40;;
67041;SDS011;53949;47.790;18.750;2023-04-12T07:11:34;8.10;;;4.18;;
67041;SDS011;53949;47.790;18.750;2023-04-12T07:14:38;8.40;;;4.47;;
67041;SDS011;53949;47.790;18.750;2023-04-12T07:17:45;6.22;;;4.15;;
67041;SDS011;53949;47.790;18.750;2023-04-12T07:20:48;7.85;;;4.55;;
67041;SDS011;53949;47.790;18.750;2023-04-12T07:23:52;10.75;;;5.15;;
67041;SDS011;53949;47.790;18.750;2023-04-12T07:26:55;8.25;;;3.45;;
67041;SDS011;53949;47.790;18.750;2023-04-12T07:29:59;4.65;;;3.80;;
67041;SDS011;53949;47.790;18.750;2023-04-12T07:33:02;6.55;;;4.05;;
67041;SDS011;53949;47.790;18.750;2023-04-12T07:36:21;4.82;;;3.90;;
67041;SDS011;53949;47.790;18.750;2023-04-12T07:39:24;2.67;;;2.47;;
67041;SDS011;53949;47.790;18.750;2023-04-12T07:42:27;4.05;;;2.85;;
67041;SDS011;53949;47.790;18.750;2023-04-12T07:45:31;7.28;;;3.40;;
67041;SDS011;53949;47.790;18.750;2023-04-12T07:48:34;4.55;;;3.20;;
67041;SDS011;53949;47.790;18.750;2023-04-12T07:51:39;5.25;;;3.60;;
67041;SDS011;53949;47.790;18.750;2023-04-12T07:54:45;3.60;;;3.22;;
67041;SDS011;53949;47.790;18.750;2023-04-12T07:57:49;3.80;;;3.30;;
67041;SDS011;53949;47.790;18.750;2023-04-12T08:00:52;4.97;;;3.55;;
67041;SDS011;53949;47.790;18.750;2023-04-12T08:03:56;5.22;;;2.87;;
67041;SDS011;53949;47.790;18.750;2023-04-12T08:07:00;3.78;;;2.90;;
67041;SDS011;53949;47.790;18.750;2023-04-12T08:10:03;3.85;;;3.05;;
67041;SDS011;53949;47.790;18.750;2023-04-12T08:13:07;4.90;;;2.90;;
67041;SDS011;53949;47.790;18.750;2023-04-12T08:16:10;5.28;;;2.83;;
67041;SDS011;53949;47.790;18.750;2023-04-12T08:19:14;3.75;;;3.15;;
67041;SDS011;53949;47.790;18.750;2023-04-12T08:22:17;8.23;;;3.10;;
67041;SDS011;53949;47.790;18.750;2023-04-12T08:25:21;4.03;;;2.67;;
67041;SDS011;53949;47.790;18.750;2023-04-12T08:28:24;4.05;;;2.78;;
67041;SDS011;53949;47.790;18.750;2023-04-12T08:31:30;4.12;;;2.35;;
67041;SDS011;53949;47.790;18.750;2023-04-12T08:34:33;3.00;;;2.33;;
67041;SDS011;53949;47.790;18.750;2023-04-12T08:37:36;5.60;;;2.87;;
67041;SDS011;53949;47.790;18.750;2023-04-12T08:40:40;2.12;;;1.98;;
67041;SDS011;53949;47.790;18.750;2023-04-12T08:43:45;2.28;;;2.05;;
67041;SDS011;53949;47.790;18.750;2023-04-12T08:49:55;2.83;;;2.55;;
67041;SDS011;53949;47.790;18.750;2023-04-12T08:53:00;3.87;;;2.85;;
67041;SDS011;53949;47.790;18.750;2023-04-12T08:56:04;2.87;;;2.03;;
67041;SDS011;53949;47.790;18.750;2023-04-12T08:59:08;4.75;;;2.53;;
67041;SDS011;53949;47.790;18.750;2023-04-12T09:02:13;3.12;;;2.17;;
67041;SDS011;53949;47.790;18.750;2023-04-12T09:05:16;4.65;;;3.35;;
67041;SDS011;53949;47.790;18.750;2023-04-12T09:08:20;3.05;;;2.75;;
67041;SDS011;53949;47.790;18.750;2023-04-12T09:11:24;9.00;;;4.15;;
67041;SDS011;53949;47.790;18.750;2023-04-12T09:14:28;3.37;;;2.97;;
67041;SDS011;53949;47.790;18.750;2023-04-12T09:17:31;5.18;;;3.40;;
67041;SDS011;53949;47.790;18.750;2023-04-12T09:20:35;3.30;;;3.00;;
67041;SDS011;53949;47.790;18.750;2023-04-12T09:23:39;3.83;;;3.13;;
67041;SDS011;53949;47.790;18.750;2023-04-12T09:26:42;5.62;;;3.65;;
67041;SDS011;53949;47.790;18.750;2023-04-12T09:29:46;3.00;;;2.70;;
67041;SDS011;53949;47.790;18.750;2023-04-12T09:32:52;5.25;;;2.90;;
67041;SDS011;53949;47.790;18.750;2023-04-12T09:36:01;3.60;;;2.92;;
67041;SDS011;53949;47.790;18.750;2023-04-12T09:39:06;3.78;;;2.83;;
67041;SDS011;53949;47.790;18.750;2023-04-12T09:42:10;2.33;;;2.10;;
67041;SDS011;53949;47.790;18.750;2023-04-12T09:45:35;3.87;;;3.03;;
67041;SDS011;53949;47.790;18.750;2023-04-12T09:48:47;3.83;;;2.90;;
67041;SDS011;53949;47.790;18.750;2023-04-12T09:51:51;3.70;;;2.80;;
67041;SDS011;53949;47.790;18.750;2023-04-12T09:54:55;3.28;;;2.45;;
67041;SDS011;53949;47.790;18.750;2023-04-12T09:58:01;4.00;;;2.35;;
67041;SDS011;53949;47.790;18.750;2023-04-12T10:01:06;3.65;;;2.45;;
67041;SDS011;53949;47.790;18.750;2023-04-12T10:04:12;4.07;;;2.67;;
67041;SDS011;53949;47.790;18.750;2023-04-12T10:07:17;6.40;;;2.55;;
67041;SDS011;53949;47.790;18.750;2023-04-12T10:10:21;3.92;;;2.62;;
67041;SDS011;53949;47.790;18.750;2023-04-12T10:13:24;3.60;;;2.50;;
67041;SDS011;53949;47.790;18.750;2023-04-12T10:16:29;3.30;;;2.80;;
67041;SDS011;53949;47.790;18.750;2023-04-12T10:19:32;3.80;;;2.00;;
67041;SDS011;53949;47.790;18.750;2023-04-12T10:22:39;3.45;;;2.35;;
67041;SDS011;53949;47.790;18.750;2023-04-12T10:25:50;4.60;;;2.17;;
67041;SDS011;53949;47.790;18.750;2023-04-12T10:29:31;2.40;;;2.20;;
67041;SDS011;53949;47.790;18.750;2023-04-12T10:32:31;5.18;;;2.80;;
67041;SDS011;53949;47.790;18.750;2023-04-12T10:39:08;4.32;;;2.20;;
67041;SDS011;53949;47.790;18.750;2023-04-12T10:42:16;5.25;;;2.95;;
67041;SDS011;53949;47.790;18.750;2023-04-12T10:48:37;6.68;;;2.50;;
67041;SDS011;53949;47.790;18.750;2023-04-12T11:02:08;2.05;;;1.73;;
67041;SDS011;53949;47.790;18.750;2023-04-12T11:05:14;2.00;;;1.70;;
67041;SDS011;53949;47.790;18.750;2023-04-12T11:08:22;4.15;;;1.98;;
67041;SDS011;53949;47.790;18.750;2023-04-12T11:11:26;3.55;;;1.80;;
67041;SDS011;53949;47.790;18.750;2023-04-12T11:14:34;3.42;;;2.08;;
67041;SDS011;53949;47.790;18.750;2023-04-12T11:17:37;4.55;;;2.40;;
67041;SDS011;53949;47.790;18.750;2023-04-12T11:20:41;3.90;;;2.15;;
67041;SDS011;53949;47.790;18.750;2023-04-12T11:23:44;3.72;;;2.05;;
67041;SDS011;53949;47.790;18.750;2023-04-12T11:26:48;2.40;;;2.20;;
67041;SDS011;53949;47.790;18.750;2023-04-12T11:29:52;5.12;;;2.47;;
67041;SDS011;53949;47.790;18.750;2023-04-12T11:32:57;2.97;;;2.00;;
67041;SDS011;53949;47.790;18.750;2023-04-12T11:36:19;4.28;;;2.40;;
67041;SDS011;53949;47.790;18.750;2023-04-12T11:39:24;2.60;;;2.40;;
67041;SDS011;53949;47.790;18.750;2023-04-12T11:42:34;5.37;;;2.55;;
67041;SDS011;53949;47.790;18.750;2023-04-12T11:45:38;4.15;;;2.20;;
67041;SDS011;53949;47.790;18.750;2023-04-12T11:48:43;4.15;;;1.90;;
67041;SDS011;53949;47.790;18.750;2023-04-12T11:52:01;2.20;;;2.00;;
67041;SDS011;53949;47.790;18.750;2023-04-12T11:55:06;3.58;;;1.85;;
67041;SDS011;53949;47.790;18.750;2023-04-12T11:58:12;2.40;;;2.20;;
67041;SDS011;53949;47.790;18.750;2023-04-12T12:01:20;2.58;;;1.92;;
67041;SDS011;53949;47.790;18.750;2023-04-12T12:04:26;3.37;;;1.50;;
67041;SDS011;53949;47.790;18.750;2023-04-12T12:07:30;5.25;;;1.90;;
67041;SDS011;53949;47.790;18.750;2023-04-12T12:10:35;1.87;;;1.70;;
67041;SDS011;53949;47.790;18.750;2023-04-12T12:13:57;3.05;;;1.70;;
67041;SDS011;53949;47.790;18.750;2023-04-12T12:17:08;3.42;;;1.90;;
67041;SDS011;53949;47.790;18.750;2023-04-12T12:20:19;2.35;;;1.95;;
67041;SDS011;53949;47.790;18.750;2023-04-12T12:23:29;2.50;;;1.60;;
67041;SDS011;53949;47.790;18.750;2023-04-12T12:26:33;4.37;;;1.90;;
67041;SDS011;53949;47.790;18.750;2023-04-12T12:32:41;1.60;;;1.50;;
67041;SDS011;53949;47.790;18.750;2023-04-12T12:35:45;3.37;;;1.77;;
67041;SDS011;53949;47.790;18.750;2023-04-12T12:38:51;4.00;;;1.62;;
67041;SDS011;53949;47.790;18.750;2023-04-12T12:41:56;1.75;;;1.62;;
67041;SDS011;53949;47.790;18.750;2023-04-12T12:44:59;2.95;;;1.50;;
67041;SDS011;53949;47.790;18.750;2023-04-12T12:48:02;2.72;;;1.70;;
67041;SDS011;53949;47.790;18.750;2023-04-12T12:51:09;1.40;;;1.10;;
67041;SDS011;53949;47.790;18.750;2023-04-12T12:54:14;2.05;;;1.25;;
67041;SDS011;53949;47.790;18.750;2023-04-12T12:57:38;1.93;;;1.10;;
67041;SDS011;53949;47.790;18.750;2023-04-12T13:00:41;1.50;;;1.40;;
67041;SDS011;53949;47.790;18.750;2023-04-12T13:03:44;1.48;;;1.25;;
67041;SDS011;53949;47.790;18.750;2023-04-12T13:06:47;2.50;;;1.33;;
67041;SDS011;53949;47.790;18.750;2023-04-12T13:09:51;1.50;;;1.30;;
67041;SDS011;53949;47.790;18.750;2023-04-12T13:12:55;3.62;;;1.40;;
67041;SDS011;53949;47.790;18.750;2023-04-12T13:15:58;1.60;;;1.20;;
67041;SDS011;53949;47.790;18.750;2023-04-12T13:19:01;2.03;;;1.20;;
67041;SDS011;53949;47.790;18.750;2023-04-12T13:22:04;1.35;;;1.25;;
67041;SDS011;53949;47.790;18.750;2023-04-12T13:28:12;1.73;;;1.35;;
67041;SDS011;53949;47.790;18.750;2023-04-12T13:31:18;3.60;;;1.42;;
67041;SDS011;53949;47.790;18.750;2023-04-12T13:34:21;2.45;;;1.20;;
67041;SDS011;53949;47.790;18.750;2023-04-12T13:37:24;4.18;;;1.20;;
67041;SDS011;53949;47.790;18.750;2023-04-12T13:40:27;1.55;;;1.17;;
67041;SDS011;53949;47.790;18.750;2023-04-12T13:43:31;2.75;;;1.30;;
67041;SDS011;53949;47.790;18.750;2023-04-12T13:46:35;4.57;;;2.67;;
67041;SDS011;53949;47.790;18.750;2023-04-12T13:49:40;3.55;;;1.60;;
67041;SDS011;53949;47.790;18.750;2023-04-12T13:52:43;1.85;;;1.27;;
67041;SDS011;53949;47.790;18.750;2023-04-12T13:55:47;1.62;;;1.30;;
67041;SDS011;53949;47.790;18.750;2023-04-12T13:58:51;2.10;;;1.48;;
67041;SDS011;53949;47.790;18.750;2023-04-12T14:01:54;1.35;;;1.23;;
67041;SDS011;53949;47.790;18.750;2023-04-12T14:04:59;2.00;;;1.17;;
67041;SDS011;53949;47.790;18.750;2023-04-12T14:08:03;1.10;;;1.00;;
67041;SDS011;53949;47.790;18.750;2023-04-12T14:11:06;2.53;;;1.33;;
67041;SDS011;53949;47.790;18.750;2023-04-12T14:14:09;1.65;;;1.33;;
67041;SDS011;53949;47.790;18.750;2023-04-12T14:17:12;2.60;;;1.47;;
67041;SDS011;53949;47.790;18.750;2023-04-12T14:20:15;2.67;;;1.55;;
67041;SDS011;53949;47.790;18.750;2023-04-12T14:23:21;3.00;;;1.52;;
67041;SDS011;53949;47.790;18.750;2023-04-12T14:26:26;1.30;;;1.08;;
67041;SDS011;53949;47.790;18.750;2023-04-12T14:29:29;2.30;;;1.23;;
67041;SDS011;53949;47.790;18.750;2023-04-12T14:32:33;2.50;;;1.27;;
67041;SDS011;53949;47.790;18.750;2023-04-12T14:35:39;1.65;;;0.90;;
67041;SDS011;53949;47.790;18.750;2023-04-12T14:38:42;1.92;;;1.48;;
67041;SDS011;53949;47.790;18.750;2023-04-12T14:41:46;1.98;;;1.20;;
67041;SDS011;53949;47.790;18.750;2023-04-12T14:44:48;1.35;;;1.20;;
67041;SDS011;53949;47.790;18.750;2023-04-12T14:47:52;2.10;;;1.13;;
67041;SDS011;53949;47.790;18.750;2023-04-12T14:50:55;1.90;;;1.20;;
67041;SDS011;53949;47.790;18.750;2023-04-12T14:53:59;4.12;;;1.30;;
67041;SDS011;53949;47.790;18.750;2023-04-12T14:57:03;1.48;;;1.20;;
67041;SDS011;53949;47.790;18.750;2023-04-12T15:00:08;1.48;;;1.37;;
67041;SDS011;53949;47.790;18.750;2023-04-12T15:03:15;1.67;;;1.50;;
67041;SDS011;53949;47.790;18.750;2023-04-12T15:06:20;1.80;;;1.40;;
67041;SDS011;53949;47.790;18.750;2023-04-12T15:09:24;1.30;;;1.20;;
67041;SDS011;53949;47.790;18.750;2023-04-12T15:12:28;3.00;;;1.37;;
67041;SDS011;53949;47.790;18.750;2023-04-12T15:15:30;1.33;;;1.23;;
67041;SDS011;53949;47.790;18.750;2023-04-12T15:18:34;1.60;;;1.50;;
67041;SDS011;53949;47.790;18.750;2023-04-12T15:21:43;1.50;;;1.40;;
67041;SDS011;53949;47.790;18.750;2023-04-12T15:24:48;1.50;;;1.40;;
67041;SDS011;53949;47.790;18.750;2023-04-12T15:27:51;1.92;;;1.60;;
67041;SDS011;53949;47.790;18.750;2023-04-12T15:30:54;1.83;;;1.27;;
67041;SDS011;53949;47.790;18.750;2023-04-12T15:37:02;1.70;;;1.60;;
67041;SDS011;53949;47.790;18.750;2023-04-12T15:40:05;2.83;;;1.47;;
67041;SDS011;53949;47.790;18.750;2023-04-12T15:43:15;1.90;;;1.40;;
67041;SDS011;53949;47.790;18.750;2023-04-12T15:46:18;3.22;;;1.80;;
67041;SDS011;53949;47.790;18.750;2023-04-12T15:49:22;2.08;;;1.87;;
67041;SDS011;53949;47.790;18.750;2023-04-12T15:52:27;2.50;;;1.60;;
67041;SDS011;53949;47.790;18.750;2023-04-12T15:55:30;3.03;;;1.62;;
67041;SDS011;53949;47.790;18.750;2023-04-12T15:58:34;2.10;;;1.80;;
67041;SDS011;53949;47.790;18.750;2023-04-12T16:01:37;3.00;;;1.80;;
67041;SDS011;53949;47.790;18.750;2023-04-12T16:04:41;2.15;;;1.95;;
67041;SDS011;53949;47.790;18.750;2023-04-12T16:07:44;2.03;;;1.83;;
67041;SDS011;53949;47.790;18.750;2023-04-12T16:10:52;2.58;;;1.77;;
67041;SDS011;53949;47.790;18.750;2023-04-12T16:13:56;1.45;;;1.35;;
67041;SDS011;53949;47.790;18.750;2023-04-12T16:17:00;2.22;;;1.42;;
67041;SDS011;53949;47.790;18.750;2023-04-12T16:20:04;1.20;;;1.10;;
67041;SDS011;53949;47.790;18.750;2023-04-12T16:23:09;2.92;;;2.45;;
67041;SDS011;53949;47.790;18.750;2023-04-12T16:26:20;3.85;;;2.05;;
67041;SDS011;53949;47.790;18.750;2023-04-12T16:29:27;3.17;;;2.35;;
67041;SDS011;53949;47.790;18.750;2023-04-12T16:32:30;1.80;;;1.50;;
67041;SDS011;53949;47.790;18.750;2023-04-12T16:35:35;1.62;;;1.50;;
67041;SDS011;53949;47.790;18.750;2023-04-12T16:38:42;3.97;;;1.73;;
67041;SDS011;53949;47.790;18.750;2023-04-12T16:41:49;2.67;;;1.60;;
67041;SDS011;53949;47.790;18.750;2023-04-12T16:44:52;1.60;;;1.50;;
67041;SDS011;53949;47.790;18.750;2023-04-12T16:47:56;1.93;;;1.57;;
67041;SDS011;53949;47.790;18.750;2023-04-12T16:51:00;2.33;;;1.70;;
67041;SDS011;53949;47.790;18.750;2023-04-12T16:54:05;2.95;;;1.85;;
67041;SDS011;53949;47.790;18.750;2023-04-12T16:57:09;2.10;;;1.80;;
67041;SDS011;53949;47.790;18.750;2023-04-12T17:00:16;6.40;;;3.72;;
67041;SDS011;53949;47.790;18.750;2023-04-12T17:03:24;6.82;;;3.60;;
67041;SDS011;53949;47.790;18.750;2023-04-12T17:06:29;4.70;;;2.83;;
67041;SDS011;53949;47.790;18.750;2023-04-12T17:09:35;3.80;;;2.50;;
67041;SDS011;53949;47.790;18.750;2023-04-12T17:12:47;4.07;;;2.25;;
67041;SDS011;53949;47.790;18.750;2023-04-12T17:15:52;4.05;;;2.45;;
67041;SDS011;53949;47.790;18.750;2023-04-12T17:18:56;2.83;;;2.17;;
67041;SDS011;53949;47.790;18.750;2023-04-12T17:22:01;3.55;;;2.25;;
67041;SDS011;53949;47.790;18.750;2023-04-12T17:25:07;4.55;;;2.37;;
67041;SDS011;53949;47.790;18.750;2023-04-12T17:28:15;4.07;;;2.00;;
67041;SDS011;53949;47.790;18.750;2023-04-12T17:31:19;4.90;;;2.85;;
67041;SDS011;53949;47.790;18.750;2023-04-12T17:34:24;4.97;;;2.22;;
67041;SDS011;53949;47.790;18.750;2023-04-12T17:37:28;5.10;;;2.60;;
67041;SDS011;53949;47.790;18.750;2023-04-12T17:40:32;4.62;;;3.22;;
67041;SDS011;53949;47.790;18.750;2023-04-12T17:43:37;5.43;;;3.08;;
67041;SDS011;53949;47.790;18.750;2023-04-12T17:46:43;4.78;;;2.50;;
67041;SDS011;53949;47.790;18.750;2023-04-12T17:49:48;3.70;;;2.78;;
67041;SDS011;53949;47.790;18.750;2023-04-12T17:52:53;5.05;;;3.08;;
67041;SDS011;53949;47.790;18.750;2023-04-12T17:55:58;8.85;;;2.78;;
67041;SDS011;53949;47.790;18.750;2023-04-12T17:59:06;6.03;;;3.15;;
67041;SDS011;53949;47.790;18.750;2023-04-12T18:02:13;6.12;;;3.45;;
67041;SDS011;53949;47.790;18.750;2023-04-12T18:05:19;7.62;;;2.75;;
67041;SDS011;53949;47.790;18.750;2023-04-12T18:08:25;6.18;;;3.15;;
67041;SDS011;53949;47.790;18.750;2023-04-12T18:11:29;4.50;;;2.70;;
67041;SDS011;53949;47.790;18.750;2023-04-12T18:14:36;6.50;;;2.50;;
67041;SDS011;53949;47.790;18.750;2023-04-12T18:17:44;3.80;;;2.37;;
67041;SDS011;53949;47.790;18.750;2023-04-12T18:20:47;3.67;;;2.70;;
67041;SDS011;53949;47.790;18.750;2023-04-12T18:23:52;4.53;;;2.50;;
67041;SDS011;53949;47.790;18.750;2023-04-12T18:26:56;3.75;;;2.15;;
67041;SDS011;53949;47.790;18.750;2023-04-12T18:30:02;2.58;;;1.70;;
67041;SDS011;53949;47.790;18.750;2023-04-12T18:33:07;3.53;;;2.30;;
67041;SDS011;53949;47.790;18.750;2023-04-12T18:36:13;3.35;;;1.67;;
67041;SDS011;53949;47.790;18.750;2023-04-12T18:39:18;2.90;;;2.05;;
67041;SDS011;53949;47.790;18.750;2023-04-12T18:42:22;4.87;;;2.28;;
67041;SDS011;53949;47.790;18.750;2023-04-12T18:45:28;3.53;;;1.85;;
67041;SDS011;53949;47.790;18.750;2023-04-12T18:48:31;2.58;;;1.73;;
67041;SDS011;53949;47.790;18.750;2023-04-12T18:51:35;3.40;;;1.73;;
67041;SDS011;53949;47.790;18.750;2023-04-12T18:54:39;5.25;;;2.03;;
67041;SDS011;53949;47.790;18.750;2023-04-12T18:57:43;2.30;;;1.85;;
67041;SDS011;53949;47.790;18.750;2023-04-12T19:00:51;6.65;;;2.22;;
67041;SDS011;53949;47.790;18.750;2023-04-12T19:03:56;4.00;;;1.98;;